Time;durP1;ratioP1;P1;durP2;ratioP2;P2;SDS_P1;SDS_P2;PMS_P1;PMS_P2;Temp;Humidity;BMP_temperature;BMP_pressure;BME280_temperature;BME280_humidity;BME280_pressure;Samples;Min_cycle;Max_cycle;Signal;HPM_P1;HPM_P2
2022/09/13 00:00:32;;;;;;;3.40;0.77;;;20.50;72.90;;;;;;5093957;28;20099;-72
2022/09/13 00:02:59;;;;;;;2.92;0.60;;;20.50;72.80;;;;;;5093544;28;20051;-72
2022/09/13 00:05:25;;;;;;;2.40;0.60;;;20.50;72.80;;;;;;5093520;28;20017;-71
2022/09/13 00:07:50;;;;;;;1.20;0.60;;;20.50;72.80;;;;;;5093902;28;20023;-72
2022/09/13 00:10:16;;;;;;;8.52;0.93;;;20.50;72.80;;;;;;5093721;28;20028;-72
2022/09/13 00:12:42;;;;;;;3.28;0.65;;;20.50;72.70;;;;;;5093887;28;20047;-71
2022/09/13 00:15:08;;;;;;;4.93;0.60;;;20.50;72.80;;;;;;5093678;28;20050;-72
2022/09/13 00:17:34;;;;;;;5.45;0.70;;;20.50;72.90;;;;;;5093311;28;20058;-71
2022/09/13 00:20:00;;;;;;;3.25;0.82;;;20.50;72.80;;;;;;5092494;28;20035;-72
2022/09/13 00:22:26;;;;;;;3.10;0.80;;;20.50;72.30;;;;;;5093534;28;20036;-72
2022/09/13 00:24:52;;;;;;;3.50;0.90;;;20.50;71.70;;;;;;5093543;28;20028;-72
2022/09/13 00:27:18;;;;;;;1.48;0.85;;;20.40;71.70;;;;;;5093668;28;20057;-72
2022/09/13 00:29:44;;;;;;;5.43;0.75;;;20.40;72.00;;;;;;5093415;28;20103;-72
2022/09/13 00:32:10;;;;;;;1.70;0.65;;;20.40;72.10;;;;;;5093569;28;20016;-72
2022/09/13 00:34:36;;;;;;;3.42;0.80;;;20.30;72.40;;;;;;5093685;28;20035;-72
2022/09/13 00:37:02;;;;;;;3.78;0.82;;;20.30;72.60;;;;;;5093471;28;20378;-72
2022/09/13 00:39:28;;;;;;;1.00;0.68;;;20.30;72.70;;;;;;5092849;28;20505;-72
2022/09/13 00:41:54;;;;;;;3.20;0.80;;;20.30;72.80;;;;;;5093380;28;20032;-72
2022/09/13 00:44:56;;;;;;;2.92;0.80;;;20.30;72.90;;;;;;5093230;28;20012;-72
2022/09/13 00:47:40;;;;;;;;;;;20.20;73.10;;;;;;5093793;28;20111;-71
2022/09/13 00:50:15;;;;;;;2.92;0.80;;;20.20;73.10;;;;;;5092826;28;19916;-71
2022/09/13 00:52:44;;;;;;;3.78;1.05;;;20.20;73.10;;;;;;5092801;28;20034;-72
2022/09/13 00:55:19;;;;;;;3.20;1.00;;;20.20;73.40;;;;;;5093064;28;20081;-72
2022/09/13 00:57:45;;;;;;;0.82;0.60;;;20.20;73.80;;;;;;5091805;28;20363;-72
2022/09/13 01:00:15;;;;;;;1.58;0.63;;;20.20;73.80;;;;;;5090338;28;20035;-72
2022/09/13 01:02:45;;;;;;;3.30;1.00;;;20.10;73.30;;;;;;5090243;28;20055;-72
2022/09/13 01:05:14;;;;;;;2.40;0.93;;;20.10;73.10;;;;;;5091547;28;20024;-71
2022/09/13 01:07:40;;;;;;;7.25;1.10;;;20.10;72.90;;;;;;5092874;28;20028;-72
2022/09/13 01:10:07;;;;;;;3.50;0.95;;;20.10;72.90;;;;;;5092866;28;20024;-71
2022/09/13 01:12:43;;;;;;;2.17;0.80;;;20.00;72.80;;;;;;5092230;28;20081;-71
2022/09/13 01:15:10;;;;;;;2.58;0.82;;;20.00;72.90;;;;;;5092828;28;20033;-72
2022/09/13 01:17:38;;;;;;;2.55;0.90;;;20.00;72.80;;;;;;5092952;28;20157;-72
2022/09/13 01:20:06;;;;;;;4.53;0.88;;;20.00;73.00;;;;;;5092195;28;20024;-71
2022/09/13 01:22:47;;;;;;;7.95;0.90;;;20.00;73.10;;;;;;5092627;28;20519;-72
2022/09/13 01:25:49;;;;;;;3.42;0.82;;;20.00;72.60;;;;;;5092988;28;20048;-72
2022/09/13 01:28:36;;;;;;;6.90;1.20;;;20.00;72.60;;;;;;5092573;28;20533;-72
2022/09/13 01:31:26;;;;;;;1.90;0.85;;;19.90;72.40;;;;;;5095811;28;20039;-72
2022/09/13 01:34:20;;;;;;;1.65;0.93;;;19.90;72.50;;;;;;5096616;28;20036;-71
2022/09/13 01:37:20;;;;;;;4.10;0.90;;;19.90;72.70;;;;;;5096402;28;20028;-71
2022/09/13 01:39:48;;;;;;;5.25;0.90;;;19.80;72.60;;;;;;5096711;28;20382;-72
2022/09/13 01:42:21;;;;;;;1.25;0.70;;;19.80;72.80;;;;;;5096624;28;20363;-71
2022/09/13 01:44:57;;;;;;;2.92;0.80;;;19.80;72.80;;;;;;5096503;28;20040;-71
2022/09/13 01:47:29;;;;;;;4.45;0.80;;;19.80;72.90;;;;;;5096498;28;20024;-72
2022/09/13 01:50:08;;;;;;;7.07;0.80;;;19.70;72.90;;;;;;5096210;28;20048;-72
2022/09/13 01:52:58;;;;;;;4.30;1.05;;;19.70;73.20;;;;;;5096368;28;20016;-72
2022/09/13 01:55:32;;;;;;;3.58;0.98;;;19.70;73.30;;;;;;5096265;28;20031;-72
2022/09/13 01:58:23;;;;;;;1.98;0.73;;;19.70;73.40;;;;;;5096144;28;20112;-71
2022/09/13 02:00:59;;;;;;;3.72;1.00;;;19.70;73.50;;;;;;5096116;28;20024;-71
2022/09/13 02:03:32;;;;;;;2.13;0.88;;;19.70;73.70;;;;;;5096488;28;20441;-72
2022/09/13 02:06:08;;;;;;;2.25;1.08;;;19.70;73.80;;;;;;5096132;28;20056;-72
2022/09/13 02:08:42;;;;;;;4.80;0.93;;;19.70;73.90;;;;;;5096209;28;20110;-72
2022/09/13 02:11:08;;;;;;;1.88;1.00;;;19.70;73.90;;;;;;5096342;28;20034;-71
2022/09/13 02:13:48;;;;;;;5.25;0.98;;;19.70;73.90;;;;;;5096205;28;20028;-72
2022/09/13 02:16:25;;;;;;;6.20;1.50;;;19.70;73.80;;;;;;5096099;28;20051;-71
2022/09/13 02:18:58;;;;;;;3.30;1.15;;;19.70;73.80;;;;;;5095793;28;20123;-72
2022/09/13 02:21:32;;;;;;;2.80;0.80;;;19.70;73.60;;;;;;5095866;28;20456;-71
2022/09/13 02:24:11;;;;;;;3.90;0.82;;;19.70;73.50;;;;;;5096127;28;20024;-72
2022/09/13 02:26:39;;;;;;;3.72;1.08;;;19.70;73.60;;;;;;5095923;28;20103;-71
2022/09/13 02:29:10;;;;;;;3.38;0.93;;;19.70;73.60;;;;;;5095776;28;20536;-72
2022/09/13 02:31:46;;;;;;;2.93;1.10;;;19.70;73.80;;;;;;5096005;28;20016;-71
2022/09/13 02:34:21;;;;;;;3.33;0.80;;;19.60;73.70;;;;;;5095716;28;20024;-72
2022/09/13 02:36:48;;;;;;;5.38;0.95;;;19.60;73.80;;;;;;5095641;28;20488;-72
2022/09/13 02:39:20;;;;;;;3.45;1.20;;;19.60;73.90;;;;;;5095574;28;20031;-72
2022/09/13 02:42:14;;;;;;;1.48;0.88;;;19.60;74.00;;;;;;5094677;28;20400;-72
2022/09/13 02:44:48;;;;;;;2.25;1.00;;;19.60;74.10;;;;;;5095907;28;20405;-72
2022/09/13 02:47:41;;;;;;;2.83;1.00;;;19.60;74.30;;;;;;5095121;28;20478;-72
2022/09/13 02:50:37;;;;;;;2.45;0.80;;;19.60;74.60;;;;;;5095133;28;20131;-71
2022/09/13 02:53:21;;;;;;;1.52;0.75;;;19.60;74.60;;;;;;5095366;28;20067;-72
2022/09/13 02:56:01;;;;;;;2.67;0.82;;;19.60;74.80;;;;;;5095573;28;20028;-71
2022/09/13 02:58:44;;;;;;;5.88;0.90;;;19.60;74.90;;;;;;5095075;28;20099;-72
2022/09/13 03:01:10;;;;;;;3.63;0.90;;;19.60;75.10;;;;;;5095145;28;20070;-72
2022/09/13 03:03:36;;;;;;;2.97;0.80;;;19.60;75.20;;;;;;5095315;28;20437;-72
2022/09/13 03:06:02;;;;;;;2.67;0.70;;;19.60;75.70;;;;;;5094977;28;20054;-72
2022/09/13 03:08:29;;;;;;;2.15;1.00;;;19.60;75.80;;;;;;5095015;28;20034;-72
2022/09/13 03:11:35;;;;;;;2.17;0.65;;;19.60;76.00;;;;;;5094902;28;20017;-72
2022/09/13 03:14:06;;;;;;;8.60;1.35;;;19.60;76.00;;;;;;5094825;28;20032;-71
2022/09/13 03:16:54;;;;;;;1.95;0.80;;;19.60;76.00;;;;;;5094672;28;20674;-71
2022/09/13 03:19:29;;;;;;;2.25;0.90;;;19.60;76.30;;;;;;5094525;28;20497;-71
2022/09/13 03:22:32;;;;;;;3.08;0.70;;;19.60;76.40;;;;;;5094574;28;20477;-72
2022/09/13 03:25:57;;;;;;;4.13;0.77;;;19.60;76.40;;;;;;5094885;28;20024;-72
2022/09/13 03:28:41;;;;;;;5.60;0.90;;;19.60;76.40;;;;;;5032059;28;20029;-71
2022/09/13 03:31:34;;;;;;;2.65;0.57;;;19.50;76.10;;;;;;5032229;28;20483;-72
2022/09/13 03:34:06;;;;;;;;;;;19.50;76.10;;;;;;5080319;28;20118;-71
2022/09/13 03:36:50;;;;;;;2.65;0.60;;;19.50;76.00;;;;;;5094378;28;20316;-72
2022/09/13 03:39:24;;;;;;;2.38;0.70;;;19.50;76.30;;;;;;5094343;28;20030;-71
2022/09/13 03:41:54;;;;;;;2.75;0.80;;;19.50;76.40;;;;;;5093931;28;20097;-72
2022/09/13 03:44:23;;;;;;;3.67;0.80;;;19.50;76.60;;;;;;5094027;28;20024;-72
2022/09/13 03:46:53;;;;;;;1.42;0.60;;;19.50;76.40;;;;;;5094385;28;20415;-72
2022/09/13 03:49:22;;;;;;;1.88;0.73;;;19.40;76.40;;;;;;5094016;28;20032;-71
2022/09/13 03:51:49;;;;;;;1.83;0.55;;;19.50;76.40;;;;;;5094062;28;20028;-72
2022/09/13 03:54:33;;;;;;;1.98;0.60;;;19.40;76.30;;;;;;5094053;28;20493;-72
2022/09/13 03:57:16;;;;;;;2.78;0.82;;;19.40;76.10;;;;;;5094254;28;20355;-72
2022/09/13 03:59:52;;;;;;;1.60;0.73;;;19.40;76.00;;;;;;5094110;28;20086;-71
2022/09/13 04:02:19;;;;;;;1.65;0.50;;;19.40;76.00;;;;;;5094091;28;20394;-72
2022/09/13 04:04:46;;;;;;;2.35;0.90;;;19.50;76.20;;;;;;5093762;28;20098;-72
2022/09/13 04:07:17;;;;;;;4.63;1.17;;;19.40;76.20;;;;;;5093996;28;20094;-72
2022/09/13 04:09:44;;;;;;;2.55;1.02;;;19.40;76.10;;;;;;5093957;28;20023;-72
2022/09/13 04:12:11;;;;;;;7.25;1.05;;;19.40;76.10;;;;;;5093933;28;20020;-72
2022/09/13 04:14:37;;;;;;;4.45;1.10;;;19.30;76.00;;;;;;5093923;28;20099;-72
2022/09/13 04:17:02;;;;;;;4.72;0.70;;;19.40;76.00;;;;;;5093591;28;20122;-71
2022/09/13 04:19:28;;;;;;;1.65;0.88;;;19.30;76.10;;;;;;5094158;28;20024;-72
2022/09/13 04:21:57;;;;;;;6.20;1.08;;;19.30;76.10;;;;;;5093453;28;20032;-72
2022/09/13 04:24:25;;;;;;;5.45;1.08;;;19.30;76.10;;;;;;5093432;28;20054;-72
2022/09/13 04:26:53;;;;;;;6.93;1.00;;;19.20;76.40;;;;;;5093729;28;20038;-72
2022/09/13 04:29:20;;;;;;;5.88;0.95;;;19.20;76.60;;;;;;5093483;28;20024;-72
2022/09/13 04:31:46;;;;;;;2.90;0.90;;;19.20;76.90;;;;;;5093178;28;20020;-72
2022/09/13 04:34:12;;;;;;;3.17;0.80;;;19.20;76.90;;;;;;5092949;28;20599;-72
2022/09/13 04:36:38;;;;;;;1.90;0.88;;;19.20;77.00;;;;;;5093445;28;20075;-72
2022/09/13 04:39:04;;;;;;;4.65;0.95;;;19.20;77.00;;;;;;5093348;28;20046;-72
2022/09/13 04:41:33;;;;;;;4.97;0.82;;;19.20;77.20;;;;;;5092840;28;20537;-72
2022/09/13 04:44:02;;;;;;;3.28;1.45;;;19.20;77.20;;;;;;5093436;28;20028;-70
2022/09/13 04:46:28;;;;;;;7.18;0.88;;;19.20;77.50;;;;;;5093268;28;20019;-71
2022/09/13 04:48:54;;;;;;;3.03;0.80;;;19.30;77.70;;;;;;5092988;28;20051;-70
2022/09/13 04:51:20;;;;;;;1.48;0.65;;;19.30;77.90;;;;;;5093429;28;20024;-71
2022/09/13 04:53:52;;;;;;;1.80;0.60;;;19.30;77.90;;;;;;5093111;28;20028;-70
2022/09/13 04:56:18;;;;;;;2.17;0.70;;;19.30;77.90;;;;;;5093025;28;20723;-71
2022/09/13 04:58:44;;;;;;;4.55;0.80;;;19.30;77.90;;;;;;5092999;28;20020;-71
2022/09/13 05:01:10;;;;;;;1.92;1.02;;;19.40;78.00;;;;;;5092993;28;20117;-70
2022/09/13 05:03:37;;;;;;;16.33;1.73;;;19.40;77.90;;;;;;5092938;28;20059;-70
2022/09/13 05:06:08;;;;;;;7.10;1.42;;;19.40;77.40;;;;;;5092503;28;20071;-70
2022/09/13 05:08:35;;;;;;;12.68;1.52;;;19.40;77.30;;;;;;5092983;28;20077;-71
2022/09/13 05:11:00;;;;;;;3.22;1.20;;;19.40;77.40;;;;;;5092917;28;20028;-71
2022/09/13 05:13:27;;;;;;;7.05;1.10;;;19.40;77.20;;;;;;5092789;28;20024;-72
2022/09/13 05:15:57;;;;;;;8.35;1.30;;;19.40;77.50;;;;;;5092814;28;20477;-71
2022/09/13 05:18:25;;;;;;;10.07;1.42;;;19.40;77.70;;;;;;5093017;28;20055;-71
2022/09/13 05:20:56;;;;;;;7.65;1.10;;;19.40;77.70;;;;;;5092578;28;20028;-71
2022/09/13 05:23:23;;;;;;;11.23;1.05;;;19.40;77.80;;;;;;5093211;28;20393;-71
2022/09/13 05:25:55;;;;;;;5.00;0.93;;;19.40;77.80;;;;;;5092817;28;20091;-72
2022/09/13 05:28:22;;;;;;;3.38;0.85;;;19.40;77.90;;;;;;5092963;28;20038;-72
2022/09/13 05:31:06;;;;;;;12.10;1.35;;;19.40;77.80;;;;;;5092387;28;20016;-71
2022/09/13 05:33:35;;;;;;;4.57;1.10;;;19.40;77.90;;;;;;5093076;28;20444;-71
2022/09/13 05:36:01;;;;;;;5.13;1.27;;;19.40;77.50;;;;;;5092933;28;20077;-71
2022/09/13 05:38:26;;;;;;;6.65;1.38;;;19.40;77.10;;;;;;5092936;28;20028;-71
2022/09/13 05:40:57;;;;;;;6.68;1.70;;;19.40;77.10;;;;;;5092624;28;20462;-72
2022/09/13 05:43:23;;;;;;;13.13;2.05;;;19.40;77.10;;;;;;5092487;28;20389;-71
2022/09/13 05:45:49;;;;;;;9.98;1.58;;;19.40;77.10;;;;;;5092763;28;20044;-71
2022/09/13 05:48:15;;;;;;;8.68;1.95;;;19.40;77.10;;;;;;5092818;28;20063;-71
2022/09/13 05:50:40;;;;;;;8.35;2.03;;;19.40;77.40;;;;;;5092575;28;20048;-72
2022/09/13 05:53:06;;;;;;;8.68;2.28;;;19.40;77.50;;;;;;5092651;28;20031;-71
2022/09/13 05:55:33;;;;;;;13.93;2.22;;;19.40;77.50;;;;;;5092223;28;20062;-72
2022/09/13 05:58:01;;;;;;;8.45;2.10;;;19.40;77.40;;;;;;5090440;28;20024;-71
2022/09/13 06:00:26;;;;;;;20.38;2.40;;;19.40;77.50;;;;;;5091602;28;20481;-71
2022/09/13 06:02:52;;;;;;;8.68;2.25;;;19.40;77.70;;;;;;5091862;28;20036;-71
2022/09/13 06:05:18;;;;;;;12.07;1.83;;;19.50;77.80;;;;;;5091670;28;20424;-72
2022/09/13 06:07:44;;;;;;;9.52;1.70;;;19.50;78.10;;;;;;5084484;28;20035;-72
2022/09/13 06:10:10;;;;;;;7.05;1.42;;;19.50;78.10;;;;;;5070542;28;20070;-72
2022/09/13 06:12:37;;;;;;;14.60;2.00;;;19.50;78.20;;;;;;5071817;28;20024;-72
2022/09/13 06:15:03;;;;;;;13.82;1.98;;;19.50;78.30;;;;;;5071010;28;20036;-71
2022/09/13 06:17:29;;;;;;;8.32;1.80;;;19.60;78.20;;;;;;5087135;28;20012;-70
2022/09/13 06:19:55;;;;;;;10.75;2.03;;;19.60;78.40;;;;;;5040023;28;20048;-70
2022/09/13 06:22:21;;;;;;;8.10;1.90;;;19.70;78.30;;;;;;5015713;28;20033;-70
2022/09/13 06:24:47;;;;;;;5.90;1.25;;;19.60;78.10;;;;;;5015334;28;20380;-71
2022/09/13 06:27:13;;;;;;;9.18;1.50;;;19.70;78.00;;;;;;5015603;28;20034;-70
2022/09/13 06:29:39;;;;;;;13.07;1.83;;;19.70;78.00;;;;;;5015723;28;20030;-71
2022/09/13 06:32:05;;;;;;;17.27;1.95;;;19.80;78.10;;;;;;5015670;28;20061;-71
2022/09/13 06:34:31;;;;;;;11.00;1.58;;;19.80;78.20;;;;;;5015269;28;20026;-71
2022/09/13 06:36:57;;;;;;;8.13;1.58;;;19.80;78.40;;;;;;5014583;28;20064;-71
2022/09/13 06:39:22;;;;;;;14.43;1.50;;;19.80;78.40;;;;;;5015040;28;20411;-71
2022/09/13 06:41:48;;;;;;;12.90;1.55;;;19.90;78.20;;;;;;5015494;28;20481;-71
2022/09/13 06:44:13;;;;;;;14.00;1.40;;;19.90;78.00;;;;;;5014744;28;20423;-71
2022/09/13 06:46:39;;;;;;;5.22;1.30;;;19.90;78.10;;;;;;5015270;28;20451;-72
2022/09/13 06:49:07;;;;;;;11.68;1.70;;;19.90;78.40;;;;;;5014435;28;20523;-72
2022/09/13 06:51:34;;;;;;;15.20;1.48;;;20.00;78.40;;;;;;5013731;28;20030;-70
2022/09/13 06:54:02;;;;;;;14.80;1.85;;;20.00;78.20;;;;;;5014335;28;20021;-71
2022/09/13 06:56:31;;;;;;;6.63;1.50;;;20.10;78.30;;;;;;5014806;28;20029;-71
2022/09/13 06:59:03;;;;;;;11.65;2.08;;;20.10;78.80;;;;;;5015244;28;20026;-71
2022/09/13 07:01:34;;;;;;;25.35;2.70;;;20.10;78.90;;;;;;5014989;28;20034;-71
2022/09/13 07:04:03;;;;;;;9.77;1.67;;;20.10;79.10;;;;;;5015571;28;20029;-72
2022/09/13 07:06:32;;;;;;;14.57;3.17;;;20.10;79.10;;;;;;5009999;28;20037;-70
2022/09/13 07:09:00;;;;;;;7.47;1.65;;;20.20;79.10;;;;;;5009259;28;20022;-71
2022/09/13 07:11:29;;;;;;;7.00;1.60;;;20.20;79.30;;;;;;5008964;28;20033;-72
2022/09/13 07:13:56;;;;;;;9.52;1.23;;;20.20;79.40;;;;;;5011453;28;20113;-71
2022/09/13 07:16:25;;;;;;;9.32;1.38;;;20.20;79.30;;;;;;5014612;28;20488;-71
2022/09/13 07:18:52;;;;;;;5.03;1.40;;;20.20;79.10;;;;;;5014847;28;20052;-72
2022/09/13 07:21:18;;;;;;;10.00;1.25;;;20.30;79.00;;;;;;5014832;28;20447;-72
2022/09/13 07:23:44;;;;;;;9.52;1.98;;;20.30;78.80;;;;;;5014865;28;20439;-72
2022/09/13 07:26:09;;;;;;;11.00;1.42;;;20.40;78.50;;;;;;5014849;28;20018;-71
2022/09/13 07:28:38;;;;;;;8.98;1.65;;;20.40;78.40;;;;;;5014348;28;20399;-72
2022/09/13 07:31:06;;;;;;;7.13;1.50;;;20.50;78.20;;;;;;5014838;28;20026;-72
2022/09/13 07:33:32;;;;;;;9.50;1.63;;;20.50;78.20;;;;;;5014557;28;20392;-71
2022/09/13 07:36:00;;;;;;;9.65;2.08;;;20.50;78.40;;;;;;5014508;28;20030;-71
2022/09/13 07:38:25;;;;;;;10.65;1.83;;;20.60;78.10;;;;;;5014578;28;20026;-71
2022/09/13 07:40:56;;;;;;;15.75;1.88;;;20.60;78.00;;;;;;5014509;28;20105;-72
2022/09/13 07:43:23;;;;;;;6.03;1.58;;;20.70;78.10;;;;;;5013632;28;20038;-72
2022/09/13 07:45:59;;;;;;;14.13;3.15;;;20.80;77.80;;;;;;5013051;28;20037;-70
2022/09/13 07:48:27;;;;;;;14.75;2.40;;;20.90;77.60;;;;;;5014243;28;20037;-72
2022/09/13 07:51:04;;;;;;;7.20;1.33;;;21.00;77.20;;;;;;5013926;28;20054;-70
2022/09/13 07:53:31;;;;;;;4.75;1.20;;;21.00;76.80;;;;;;5013588;28;20084;-71
2022/09/13 07:56:05;;;;;;;6.18;1.92;;;21.10;76.70;;;;;;5014368;28;20029;-71
2022/09/13 07:58:35;;;;;;;12.43;2.13;;;21.20;76.10;;;;;;5013826;28;20026;-71
2022/09/13 08:01:06;;;;;;;3.65;1.80;;;21.20;75.90;;;;;;5013524;28;20364;-70
2022/09/13 08:03:33;;;;;;;11.88;1.77;;;21.40;75.50;;;;;;5013339;28;20064;-70
2022/09/13 08:06:00;;;;;;;7.93;1.23;;;21.40;74.90;;;;;;5013810;28;20030;-71
2022/09/13 08:08:26;;;;;;;7.65;2.83;;;21.50;74.40;;;;;;5013490;28;20022;-71
2022/09/13 08:10:52;;;;;;;10.60;2.15;;;21.50;74.40;;;;;;5013711;28;20041;-70
2022/09/13 08:13:18;;;;;;;4.90;1.85;;;21.60;74.20;;;;;;5013656;28;20388;-70
2022/09/13 08:15:43;;;;;;;8.32;2.20;;;21.60;73.90;;;;;;5013417;28;20033;-71
2022/09/13 08:18:09;;;;;;;10.07;2.38;;;21.70;74.20;;;;;;5013401;28;20022;-71
2022/09/13 08:20:37;;;;;;;7.28;2.45;;;21.70;73.90;;;;;;5013165;28;20037;-69
2022/09/13 08:23:04;;;;;;;13.43;3.28;;;21.80;73.90;;;;;;5012880;28;20513;-71
2022/09/13 08:25:33;;;;;;;9.05;3.17;;;21.80;74.00;;;;;;5012980;28;20026;-69
2022/09/13 08:28:00;;;;;;;12.60;3.25;;;21.90;73.70;;;;;;5013392;28;20024;-69
2022/09/13 08:30:31;;;;;;;8.70;2.85;;;22.00;73.70;;;;;;5013251;28;20021;-69
2022/09/13 08:33:01;;;;;;;10.32;2.65;;;22.00;73.50;;;;;;5011986;28;20022;-70
2022/09/13 08:35:28;;;;;;;10.95;2.67;;;22.10;73.30;;;;;;5012070;28;20022;-69
2022/09/13 08:37:53;;;;;;;8.18;2.63;;;22.20;73.20;;;;;;5012730;28;20522;-69
2022/09/13 08:40:21;;;;;;;8.20;2.78;;;22.30;73.10;;;;;;5012107;28;20058;-69
2022/09/13 08:43:10;;;;;;;3.47;2.00;;;22.40;73.20;;;;;;5012652;28;20038;-70
2022/09/13 08:45:36;;;;;;;9.63;2.00;;;22.50;72.80;;;;;;5012985;28;20030;-68
2022/09/13 08:48:11;;;;;;;2.13;1.17;;;22.60;72.50;;;;;;5013032;28;20586;-69
2022/09/13 08:50:37;;;;;;;8.27;1.55;;;22.60;72.40;;;;;;5012558;28;20472;-68
2022/09/13 08:53:37;;;;;;;3.78;1.30;;;22.60;72.40;;;;;;5012913;28;20030;-68
2022/09/13 08:56:06;;;;;;;4.25;0.90;;;22.70;72.50;;;;;;5005793;28;20045;-69
2022/09/13 08:58:59;;;;;;;4.15;0.90;;;22.80;72.90;;;;;;5012850;28;20022;-70
2022/09/13 09:01:37;;;;;;;2.55;0.80;;;22.90;73.20;;;;;;5012644;28;20176;-70
2022/09/13 09:04:27;;;;;;;3.05;0.88;;;23.00;72.40;;;;;;5012762;28;20037;-70
2022/09/13 09:07:09;;;;;;;3.15;0.93;;;23.00;72.70;;;;;;5012719;28;20041;-69
2022/09/13 09:09:43;;;;;;;6.38;1.15;;;23.10;72.10;;;;;;5012777;28;20080;-70
2022/09/13 09:12:33;;;;;;;2.85;0.50;;;23.20;71.90;;;;;;5012604;28;20084;-69
2022/09/13 09:15:23;;;;;;;1.05;0.55;;;23.20;71.00;;;;;;5012484;28;20022;-69
2022/09/13 09:17:59;;;;;;;3.55;0.80;;;23.30;71.50;;;;;;5012828;28;20030;-71
2022/09/13 09:20:36;;;;;;;10.02;0.70;;;23.30;71.60;;;;;;5012690;28;20033;-69
2022/09/13 09:23:12;;;;;;;5.13;0.90;;;23.40;71.30;;;;;;5012302;28;20045;-68
2022/09/13 09:25:38;;;;;;;3.15;0.80;;;23.50;71.40;;;;;;5012542;28;20109;-69
2022/09/13 09:28:17;;;;;;;1.63;0.60;;;23.60;70.80;;;;;;5012365;28;20126;-68
2022/09/13 09:30:55;;;;;;;5.00;0.80;;;23.70;70.90;;;;;;5012699;28;20084;-69
2022/09/13 09:33:27;;;;;;;5.60;0.98;;;23.70;70.90;;;;;;5012411;28;20102;-69
2022/09/13 09:36:39;;;;;;;8.00;1.20;;;23.80;70.80;;;;;;5012779;28;20030;-70
2022/09/13 09:39:09;;;;;;;18.08;2.78;;;23.90;70.40;;;;;;4990789;28;20042;-69
2022/09/13 09:41:37;;;;;;;6.03;0.85;;;23.90;69.40;;;;;;5010752;28;20074;-69
2022/09/13 09:44:25;;;;;;;5.82;1.23;;;24.00;68.50;;;;;;5012137;28;20092;-70
2022/09/13 09:47:31;;;;;;;10.27;1.40;;;24.10;68.90;;;;;;5012663;28;20044;-70
2022/09/13 09:50:09;;;;;;;6.40;1.10;;;24.20;68.90;;;;;;5011396;28;20046;-70
2022/09/13 09:53:06;;;;;;;1.88;0.98;;;24.30;68.90;;;;;;5015693;28;20030;-70
2022/09/13 09:56:04;;;;;;;2.33;1.00;;;24.40;67.60;;;;;;5016295;28;20022;-70
2022/09/13 09:58:41;;;;;;;1.33;0.90;;;24.50;66.70;;;;;;5014121;28;20046;-71
2022/09/13 10:01:25;;;;;;;2.90;0.82;;;24.50;66.50;;;;;;5016091;28;20033;-71
2022/09/13 10:04:04;;;;;;;2.58;0.90;;;24.60;66.30;;;;;;5016062;28;20026;-72
2022/09/13 10:06:30;;;;;;;4.95;0.82;;;24.70;65.50;;;;;;5015441;28;20104;-71
2022/09/13 10:09:21;;;;;;;3.40;0.90;;;24.80;64.80;;;;;;5015375;28;20022;-72
2022/09/13 10:11:56;;;;;;;2.25;1.10;;;24.80;64.10;;;;;;5016091;28;20387;-72
2022/09/13 10:14:44;;;;;;;2.72;0.70;;;24.90;62.90;;;;;;5015817;28;20029;-72
2022/09/13 10:17:23;;;;;;;5.47;1.08;;;25.00;63.70;;;;;;5014695;28;20030;-72
2022/09/13 10:20:18;;;;;;;3.10;0.60;;;25.10;63.90;;;;;;5015906;28;20061;-70
2022/09/13 10:22:57;;;;;;;3.85;0.65;;;25.10;64.30;;;;;;5031035;28;20145;-71
2022/09/13 10:25:25;;;;;;;1.42;0.50;;;25.20;63.20;;;;;;5035728;28;20022;-72
2022/09/13 10:27:57;;;;;;;3.22;1.10;;;25.20;63.80;;;;;;5035794;28;20017;-72
2022/09/13 10:30:32;;;;;;;3.28;0.60;;;25.30;62.20;;;;;;5033961;28;20072;-68
2022/09/13 10:32:59;;;;;;;1.02;0.55;;;25.30;62.20;;;;;;4995793;28;20506;-69
2022/09/13 10:35:25;;;;;;;2.63;0.65;;;25.40;61.70;;;;;;4995754;28;20101;-69
2022/09/13 10:37:51;;;;;;;1.10;0.57;;;25.50;61.30;;;;;;4996026;28;20106;-69
2022/09/13 10:40:29;;;;;;;1.40;0.40;;;25.50;61.40;;;;;;4995859;28;20473;-69
2022/09/13 10:43:00;;;;;;;2.13;0.50;;;25.50;61.20;;;;;;4995639;28;20030;-71
2022/09/13 10:45:29;;;;;;;1.20;0.40;;;25.50;61.50;;;;;;4996065;28;20033;-69
2022/09/13 10:48:19;;;;;;;5.57;0.47;;;25.50;61.70;;;;;;4996018;28;20034;-70
2022/09/13 10:51:06;;;;;;;1.73;0.40;;;25.50;60.10;;;;;;4995068;28;20524;-70
2022/09/13 10:53:38;;;;;;;1.40;0.50;;;25.60;59.40;;;;;;4995681;28;20030;-71
2022/09/13 10:56:17;;;;;;;6.93;1.65;;;25.60;59.20;;;;;;5002612;28;20018;-71
2022/09/13 10:58:43;;;;;;;15.73;1.38;;;25.50;58.90;;;;;;5014710;28;20523;-71
2022/09/13 11:01:43;;;;;;;9.15;2.63;;;25.50;59.60;;;;;;5015378;28;20049;-69
2022/09/13 11:04:27;;;;;;;8.77;1.80;;;25.50;58.60;;;;;;5014694;28;20059;-72
2022/09/13 11:07:01;;;;;;;3.55;0.60;;;25.50;57.60;;;;;;5015123;28;20084;-69
2022/09/13 11:09:39;;;;;;;4.50;0.82;;;25.50;58.30;;;;;;5014887;28;20018;-69
2022/09/13 11:12:17;;;;;;;4.53;0.73;;;25.40;59.10;;;;;;5014754;28;20022;-69
2022/09/13 11:15:20;;;;;;;1.00;0.55;;;25.40;59.80;;;;;;5014747;28;20030;-71
2022/09/13 11:18:22;;;;;;;1.48;0.68;;;25.40;60.90;;;;;;5014893;28;20022;-70
2022/09/13 11:21:14;;;;;;;5.00;0.65;;;25.30;61.60;;;;;;5014825;28;20061;-72
2022/09/13 11:24:03;;;;;;;2.67;0.60;;;25.30;61.80;;;;;;5014802;28;20061;-71
2022/09/13 11:26:35;;;;;;;1.40;0.80;;;25.30;62.20;;;;;;5014354;28;20075;-70
2022/09/13 11:29:44;;;;;;;2.95;0.73;;;25.30;62.40;;;;;;5014709;28;20435;-70
2022/09/13 11:32:36;;;;;;;2.80;0.60;;;25.30;63.20;;;;;;4997705;28;20046;-70
2022/09/13 11:35:23;;;;;;;0.90;0.50;;;25.30;63.30;;;;;;5014667;28;20033;-72
2022/09/13 11:38:01;;;;;;;0.80;0.50;;;25.30;61.80;;;;;;5014487;28;20022;-71
2022/09/13 11:41:04;;;;;;;1.02;0.60;;;25.30;62.40;;;;;;5014765;28;20459;-70
2022/09/13 11:43:47;;;;;;;2.53;0.50;;;25.30;63.20;;;;;;5014512;28;20570;-70
2022/09/13 11:46:34;;;;;;;1.42;0.60;;;25.30;63.80;;;;;;5014309;28;20065;-70
2022/09/13 11:49:17;;;;;;;3.28;0.55;;;25.30;64.00;;;;;;5014329;28;20030;-69
2022/09/13 11:51:57;;;;;;;1.40;0.70;;;25.20;64.60;;;;;;5014447;28;20026;-71
2022/09/13 11:54:26;;;;;;;4.90;0.57;;;25.20;65.10;;;;;;5014233;28;20026;-71
2022/09/13 11:56:57;;;;;;;5.32;0.60;;;25.20;64.50;;;;;;5014160;28;20041;-70
2022/09/13 11:59:43;;;;;;;1.65;0.50;;;25.20;64.70;;;;;;5013890;28;20144;-70
2022/09/13 12:03:02;;;;;;;1.48;0.60;;;25.20;65.50;;;;;;5014001;28;20069;-70
2022/09/13 12:05:35;;;;;;;2.65;0.60;;;25.10;64.90;;;;;;4980752;28;20092;-71
2022/09/13 12:08:10;;;;;;;5.75;0.70;;;25.10;65.40;;;;;;5013723;28;20022;-69
2022/09/13 12:10:59;;;;;;;1.77;0.52;;;25.10;65.70;;;;;;5011870;28;20037;-69
2022/09/13 12:13:56;;;;;;;1.67;0.60;;;25.10;65.70;;;;;;5011191;28;20057;-70
2022/09/13 12:16:27;;;;;;;1.27;0.60;;;25.00;66.10;;;;;;5012481;28;20125;-69
2022/09/13 12:18:58;;;;;;;7.65;1.20;;;25.00;66.00;;;;;;5012167;28;20096;-69
2022/09/13 12:21:36;;;;;;;10.60;1.27;;;25.00;66.40;;;;;;5013446;28;20084;-69
2022/09/13 12:24:11;;;;;;;2.92;0.47;;;25.10;67.20;;;;;;5013576;28;20041;-70
2022/09/13 12:26:53;;;;;;;2.20;0.50;;;25.10;67.00;;;;;;5013616;28;20061;-69
2022/09/13 12:29:24;;;;;;;1.58;0.55;;;25.20;67.10;;;;;;5013618;28;20034;-71
2022/09/13 12:31:56;;;;;;;2.20;0.50;;;25.20;66.70;;;;;;5013814;28;20028;-71
2022/09/13 12:34:40;;;;;;;3.10;0.50;;;25.20;66.50;;;;;;5013695;28;20419;-71
2022/09/13 12:37:27;;;;;;;5.05;0.88;;;25.30;66.60;;;;;;5013636;28;20037;-72
2022/09/13 12:40:13;;;;;;;3.97;0.60;;;25.20;66.70;;;;;;5013553;28;20018;-71
2022/09/13 12:43:10;;;;;;;3.13;0.50;;;25.20;67.10;;;;;;5013598;28;20030;-72
2022/09/13 12:45:47;;;;;;;3.30;0.50;;;25.20;67.20;;;;;;5013253;28;20477;-71
2022/09/13 12:48:21;;;;;;;1.65;0.70;;;25.10;66.20;;;;;;5013038;28;20033;-72
2022/09/13 12:50:56;;;;;;;0.93;0.50;;;25.00;66.30;;;;;;5013305;28;20551;-72
2022/09/13 12:54:12;;;;;;;1.05;0.40;;;25.00;66.60;;;;;;5013483;28;20030;-72
2022/09/13 12:57:27;;;;;;;2.63;0.45;;;25.00;66.80;;;;;;5004140;28;20072;-71
2022/09/13 12:59:52;;;;;;;0.85;0.45;;;25.00;66.60;;;;;;5001142;28;20038;-72
2022/09/13 13:02:45;;;;;;;3.53;0.50;;;25.00;67.00;;;;;;5013110;28;20034;-72
2022/09/13 13:05:20;;;;;;;5.95;1.63;;;25.10;66.90;;;;;;5013012;28;20503;-72
2022/09/13 13:07:58;;;;;;;16.58;1.70;;;25.20;67.20;;;;;;5013186;28;20100;-71
2022/09/13 13:10:42;;;;;;;0.93;0.40;;;25.30;66.50;;;;;;5013378;28;20026;-71
2022/09/13 13:13:12;;;;;;;0.95;0.47;;;25.30;66.70;;;;;;5013084;28;20384;-72
2022/09/13 13:15:37;;;;;;;2.13;0.60;;;25.30;66.80;;;;;;5012959;28;20030;-72
2022/09/13 13:18:26;;;;;;;3.35;0.70;;;25.30;66.20;;;;;;5013058;28;20392;-72
2022/09/13 13:20:54;;;;;;;5.05;1.17;;;25.30;66.70;;;;;;5013097;28;20408;-72
2022/09/13 13:23:22;;;;;;;3.80;0.98;;;25.20;67.00;;;;;;5012750;28;20037;-72